Fairview, Canada
Current Conditions -  °F | °C
As of 7:00 PM on Thursday 18 Dec 2014 (Local Time) from CYPE Reporting Station
Broken Clouds Broken Clouds  
Wind Chill: 11°   Ceiling: 6000
Heat Index: 19°   Visibility: 15mi
Dew Point: 16°   Wind: 6mph
Humidity: 86%   Direction: 250°WSW
Pressure: 29.79"   Gusts: NA
Location:  56.07°N, 118.38°W
Report Text: CYPE 190200Z 25005KT 15SM BKN060 M07/M09 A2979 RMK SC7 SLP133
Loading
Personal Weather Stations






























Interactive Weather Map New forecast layout! Learn more

10-Day Weather Forecast

Advertisements
Track Severe Weather on mobile